createdAt,value
2023-02-13T00:02:11.364Z,37.63
2023-02-13T00:04:44.150Z,52.05
2023-02-13T00:07:16.904Z,47.75
2023-02-13T00:09:49.607Z,45.17
2023-02-13T00:12:22.617Z,48.88
2023-02-13T00:17:29.567Z,48.73
2023-02-13T00:20:02.430Z,43.58
2023-02-13T00:25:10.192Z,44.95
2023-02-13T00:27:43.127Z,51.28
2023-02-13T00:35:23.603Z,46.83
2023-02-13T00:37:58.775Z,49.65
2023-02-13T00:43:05.196Z,47.33
2023-02-13T00:45:38.180Z,48.03
2023-02-13T00:50:46.214Z,51.08
2023-02-13T00:53:19.120Z,50.53
2023-02-13T00:55:53.240Z,51.70
2023-02-13T00:58:26.123Z,52.53
2023-02-13T01:03:34.121Z,54.60
2023-02-13T01:06:08.765Z,51.20
2023-02-13T01:08:41.986Z,52.40
2023-02-13T01:11:14.879Z,48.88
2023-02-13T01:13:49.975Z,53.35
2023-02-13T01:16:26.342Z,51.08
2023-02-13T01:19:00.674Z,54.35
2023-02-13T01:21:33.770Z,51.88
2023-02-13T01:24:09.768Z,52.45
2023-02-13T01:26:42.497Z,49.65
2023-02-13T01:29:15.584Z,55.45
2023-02-13T01:31:48.594Z,51.28
2023-02-13T01:34:23.195Z,51.25
2023-02-13T01:36:56.783Z,50.20
2023-02-13T01:39:30.850Z,51.95
2023-02-13T01:42:04.075Z,56.03
2023-02-13T01:44:52.118Z,51.25
2023-02-13T01:47:29.709Z,48.28
2023-02-13T01:50:11.703Z,52.83
2023-02-13T01:52:49.394Z,54.70
2023-02-13T01:55:22.580Z,47.83
2023-02-13T01:58:00.390Z,52.63
2023-02-13T02:00:34.054Z,51.00
2023-02-13T02:03:13.258Z,50.38
2023-02-13T02:05:50.910Z,52.15
2023-02-13T02:08:24.093Z,54.95
2023-02-13T02:11:06.933Z,53.58
2023-02-13T02:13:39.904Z,49.95
2023-02-13T02:16:15.819Z,50.95
2023-02-13T02:18:48.684Z,53.03
2023-02-13T02:21:56.358Z,53.65
2023-02-13T02:25:05.421Z,56.65
2023-02-13T02:28:17.730Z,49.08
2023-02-13T02:31:29.738Z,56.42
2023-02-13T02:34:15.588Z,51.97
2023-02-13T02:37:05.873Z,50.90
2023-02-13T02:39:48.984Z,52.05
2023-02-13T02:42:31.219Z,53.35
2023-02-13T02:45:10.651Z,49.88
2023-02-13T02:48:08.714Z,49.58
2023-02-13T02:50:47.747Z,52.70
2023-02-13T02:53:32.682Z,51.88
2023-02-13T02:56:12.716Z,54.60
2023-02-13T02:59:09.982Z,53.78
2023-02-13T03:02:02.062Z,53.17
2023-02-13T03:04:57.598Z,57.00
2023-02-13T03:07:33.425Z,55.00
2023-02-13T03:10:28.619Z,51.95
2023-02-13T03:13:31.590Z,50.17
2023-02-13T03:16:22.592Z,52.22
2023-02-13T03:19:16.316Z,54.95
2023-02-13T03:22:10.827Z,56.97
2023-02-13T03:24:54.412Z,57.90
2023-02-13T03:27:56.483Z,51.67
2023-02-13T03:30:40.579Z,53.80
2023-02-13T03:33:25.112Z,53.88
2023-02-13T03:36:22.972Z,57.67
2023-02-13T03:39:02.421Z,57.42
2023-02-13T03:41:41.283Z,54.78
2023-02-13T03:44:21.557Z,55.80
2023-02-13T03:46:58.658Z,53.70
2023-02-13T03:49:54.683Z,53.55
2023-02-13T03:52:32.617Z,49.67
2023-02-13T03:55:28.799Z,55.95
2023-02-13T03:58:26.212Z,54.55
2023-02-13T04:01:02.501Z,53.30
2023-02-13T04:03:42.091Z,54.33
2023-02-13T04:06:17.933Z,53.92
2023-02-13T04:08:50.825Z,49.45
2023-02-13T04:14:03.110Z,61.30
2023-02-13T04:16:39.670Z,59.95
2023-02-13T04:19:13.152Z,50.95
2023-02-13T04:21:46.138Z,57.67
2023-02-13T04:24:18.995Z,49.83
2023-02-13T04:29:27.460Z,52.15
2023-02-13T04:32:00.380Z,53.55
2023-02-13T04:37:06.158Z,52.28
2023-02-13T04:39:38.992Z,53.88
2023-02-13T04:42:11.827Z,53.70
2023-02-13T04:44:45.958Z,54.75
2023-02-13T04:47:18.745Z,52.08
2023-02-13T04:49:51.621Z,53.70
2023-02-13T04:52:24.320Z,52.42
2023-02-13T04:54:57.168Z,51.95
2023-02-13T04:57:30.194Z,50.72
2023-02-13T05:00:09.028Z,56.15
2023-02-13T05:02:41.783Z,51.25
2023-02-13T05:05:14.770Z,51.15
2023-02-13T05:07:48.250Z,55.88
2023-02-13T05:10:21.117Z,53.97
2023-02-13T05:15:27.916Z,49.78
2023-02-13T05:18:00.933Z,49.65
2023-02-13T05:20:33.618Z,52.83
2023-02-13T05:23:23.515Z,48.95
2023-02-13T05:25:56.447Z,54.63
2023-02-13T05:28:46.950Z,52.30
2023-02-13T05:31:21.380Z,52.22
2023-02-13T05:33:54.213Z,49.08
2023-02-13T05:38:59.593Z,52.30
2023-02-13T05:41:32.299Z,53.28
2023-02-13T05:44:05.639Z,51.22
2023-02-13T05:46:41.592Z,52.28
2023-02-13T05:49:16.039Z,48.70
2023-02-13T05:51:48.773Z,48.88
2023-02-13T05:54:21.623Z,52.78
2023-02-13T05:56:54.606Z,55.47
2023-02-13T06:02:01.391Z,46.70
2023-02-13T06:04:34.288Z,50.10
2023-02-13T06:07:07.100Z,55.78
2023-02-13T06:09:39.869Z,50.85
2023-02-13T06:12:12.848Z,50.17
2023-02-13T06:14:45.533Z,48.30
2023-02-13T06:17:19.753Z,49.08
2023-02-13T06:19:52.881Z,50.80
2023-02-13T06:22:25.875Z,48.22
2023-02-13T06:27:31.382Z,47.70
2023-02-13T06:30:04.665Z,48.40
2023-02-13T06:32:38.876Z,49.90
2023-02-13T06:35:11.591Z,46.83
2023-02-13T06:37:45.068Z,46.80
2023-02-13T06:40:18.454Z,47.10
2023-02-13T06:42:51.447Z,51.47
2023-02-13T06:45:24.322Z,49.00
2023-02-13T06:47:58.392Z,45.13
2023-02-13T06:50:31.232Z,54.20
2023-02-13T06:53:04.016Z,42.85
2023-02-13T06:55:39.249Z,44.25
2023-02-13T06:58:12.321Z,43.72
2023-02-13T07:00:45.122Z,45.97
2023-02-13T07:03:19.608Z,44.67
2023-02-13T07:05:52.686Z,43.40
2023-02-13T07:08:25.602Z,41.58
2023-02-13T07:13:31.259Z,44.65
2023-02-13T07:16:04.131Z,43.17
2023-02-13T07:21:11.600Z,45.33
2023-02-13T07:26:17.043Z,41.00
2023-02-13T07:28:54.775Z,46.38
2023-02-13T07:31:32.393Z,46.72
2023-02-13T07:34:06.557Z,44.88
2023-02-13T07:36:39.436Z,44.97
2023-02-13T07:39:12.234Z,44.03
2023-02-13T07:41:44.951Z,41.58
2023-02-13T07:44:18.165Z,42.88
2023-02-13T07:49:25.258Z,48.83
2023-02-13T07:51:58.790Z,40.35
2023-02-13T07:54:31.993Z,43.15
2023-02-13T07:57:05.407Z,45.85
2023-02-13T07:59:38.230Z,43.60
2023-02-13T08:02:14.017Z,43.17
2023-02-13T08:04:48.308Z,41.53
2023-02-13T08:07:21.012Z,46.42
2023-02-13T08:10:11.673Z,40.90
2023-02-13T08:12:45.156Z,47.22
2023-02-13T08:15:18.274Z,47.22
2023-02-13T08:17:51.230Z,47.88
2023-02-13T08:20:27.593Z,53.28
2023-02-13T08:23:04.102Z,53.45
2023-02-13T08:25:39.307Z,51.80
2023-02-13T08:28:12.596Z,60.95
2023-02-13T08:30:47.439Z,50.55
2023-02-13T08:33:20.343Z,44.60
2023-02-13T08:35:54.488Z,53.83
2023-02-13T08:38:27.293Z,61.80
2023-02-13T08:41:00.172Z,60.75
2023-02-13T08:46:06.235Z,63.15
2023-02-13T08:48:39.204Z,58.45
2023-02-13T08:53:47.150Z,69.82
2023-02-13T08:56:21.104Z,69.88
2023-02-13T08:58:54.971Z,74.40
2023-02-13T09:01:28.334Z,67.68
2023-02-13T09:04:01.203Z,67.85
2023-02-13T09:06:35.445Z,70.68
2023-02-13T09:09:08.207Z,76.00
2023-02-13T09:14:14.063Z,81.60
2023-02-13T09:16:46.892Z,86.75
2023-02-13T09:19:19.643Z,81.90
2023-02-13T09:21:53.732Z,84.35
2023-02-13T09:24:26.841Z,85.82
2023-02-13T09:26:59.607Z,89.40
2023-02-13T09:29:33.819Z,96.20
2023-02-13T09:32:07.276Z,88.05
2023-02-13T09:34:40.023Z,94.38
2023-02-13T09:37:14.232Z,95.90
2023-02-13T09:39:47.191Z,97.30
2023-02-13T09:45:00.655Z,80.95
2023-02-13T09:47:35.621Z,92.35
2023-02-13T09:50:15.960Z,86.93
2023-02-13T09:52:52.459Z,97.30
2023-02-13T09:55:30.981Z,98.70
2023-02-13T09:58:10.832Z,105.03
2023-02-13T10:00:46.903Z,116.15
2023-02-13T10:03:27.031Z,107.18
2023-02-13T10:06:08.972Z,107.90
2023-02-13T10:09:01.271Z,115.18
2023-02-13T10:11:46.463Z,116.07
2023-02-13T10:14:24.844Z,110.57
2023-02-13T10:17:02.981Z,105.10
2023-02-13T10:19:41.458Z,115.65
2023-02-13T10:22:17.911Z,104.50
2023-02-13T10:24:56.502Z,110.93
2023-02-13T10:27:35.478Z,108.10
2023-02-13T10:30:17.444Z,112.43
2023-02-13T10:33:11.277Z,116.10
2023-02-13T10:35:49.429Z,119.65
2023-02-13T10:38:23.802Z,117.88
2023-02-13T10:41:24.214Z,114.82
2023-02-13T10:44:11.306Z,127.38
2023-02-13T10:46:57.289Z,120.53
2023-02-13T10:49:43.259Z,117.20
2023-02-13T10:52:25.920Z,121.25
2023-02-13T10:55:10.043Z,106.45
2023-02-13T10:57:59.834Z,122.68
2023-02-13T11:00:38.832Z,119.82
2023-02-13T11:03:19.810Z,124.70
2023-02-13T11:05:53.837Z,122.53
2023-02-13T11:08:30.094Z,117.75
2023-02-13T11:11:02.953Z,120.15
2023-02-13T11:16:11.216Z,122.07
2023-02-13T11:18:50.505Z,109.00
2023-02-13T11:21:34.357Z,121.35
2023-02-13T11:24:07.208Z,119.13
2023-02-13T11:26:40.920Z,120.80
2023-02-13T11:29:25.319Z,113.18
2023-02-13T11:32:23.137Z,121.97
2023-02-13T11:34:56.205Z,119.38
2023-02-13T11:40:32.408Z,108.32
2023-02-13T11:43:07.964Z,114.05
2023-02-13T11:45:40.853Z,111.95
2023-02-13T11:48:23.404Z,121.53
2023-02-13T11:50:57.605Z,107.70
2023-02-13T11:53:32.746Z,116.55
2023-02-13T11:56:10.505Z,119.63
2023-02-13T11:58:44.328Z,110.40
2023-02-13T12:01:29.359Z,116.53
2023-02-13T12:04:08.300Z,110.78
2023-02-13T12:06:41.054Z,111.35
2023-02-13T12:09:16.629Z,105.35
2023-02-13T12:11:52.954Z,106.85
2023-02-13T12:14:28.881Z,102.00
2023-02-13T12:17:06.230Z,101.60
2023-02-13T12:19:43.228Z,103.45
2023-02-13T12:22:28.691Z,108.60
2023-02-13T12:25:26.765Z,106.15
2023-02-13T12:28:11.901Z,105.43
2023-02-13T12:31:01.036Z,104.68
2023-02-13T12:33:55.641Z,99.88
2023-02-13T12:36:34.801Z,111.57
2023-02-13T12:39:19.579Z,107.30
2023-02-13T12:42:05.597Z,95.60
2023-02-13T12:44:53.503Z,100.85
2023-02-13T12:47:30.918Z,102.63
2023-02-13T12:50:19.528Z,115.05
2023-02-13T12:53:19.953Z,112.25
2023-02-13T12:56:09.830Z,96.47
2023-02-13T12:58:57.303Z,88.72
2023-02-13T13:01:51.132Z,83.20
2023-02-13T13:04:34.097Z,81.35
2023-02-13T13:07:28.964Z,86.80
2023-02-13T13:10:32.137Z,75.13
2023-02-13T13:13:20.401Z,86.65
2023-02-13T13:16:00.785Z,75.88
2023-02-13T13:18:47.334Z,77.40
2023-02-13T13:21:31.413Z,76.47
2023-02-13T13:24:12.979Z,80.22
2023-02-13T13:26:49.742Z,78.32
2023-02-13T13:29:26.451Z,77.78
2023-02-13T13:32:04.738Z,67.60
2023-02-13T13:34:40.667Z,60.17
2023-02-13T13:37:21.328Z,72.07
2023-02-13T13:40:00.620Z,72.05
2023-02-13T13:42:42.306Z,72.72
2023-02-13T13:45:32.458Z,70.20
2023-02-13T13:48:25.869Z,71.57
2023-02-13T13:53:33.514Z,64.50
2023-02-13T13:56:09.161Z,53.42
2023-02-13T13:58:46.872Z,59.55
2023-02-13T14:01:23.472Z,58.60
2023-02-13T14:03:57.422Z,61.20
2023-02-13T14:07:09.906Z,58.13
2023-02-13T14:09:44.387Z,55.47
2023-02-13T14:12:46.111Z,53.65
2023-02-13T14:15:53.343Z,51.15
2023-02-13T14:18:27.879Z,48.30
2023-02-13T14:21:03.437Z,49.97
2023-02-13T14:23:50.301Z,52.20
2023-02-13T14:26:41.611Z,48.50
2023-02-13T14:29:32.212Z,46.20
2023-02-13T14:32:12.196Z,42.47
2023-02-13T14:34:53.782Z,45.55
2023-02-13T14:37:35.204Z,45.63
2023-02-13T14:40:29.300Z,43.70
2023-02-13T14:43:23.303Z,46.42
2023-02-13T14:45:59.053Z,40.35
2023-02-13T14:48:41.338Z,41.17
2023-02-13T14:51:21.951Z,42.75
2023-02-13T14:53:59.585Z,42.58
2023-02-13T14:56:34.529Z,43.17
2023-02-13T14:59:14.895Z,40.50
2023-02-13T15:01:52.900Z,38.70
2023-02-13T15:04:31.006Z,41.67
2023-02-13T15:07:06.295Z,43.10
2023-02-13T15:09:41.474Z,39.15
2023-02-13T15:12:34.184Z,39.42
2023-02-13T15:15:24.960Z,36.42
2023-02-13T15:18:01.677Z,34.55
2023-02-13T15:20:36.164Z,34.80
2023-02-13T15:23:09.631Z,39.53
2023-02-13T15:25:42.584Z,40.80
2023-02-13T15:30:58.116Z,35.10
2023-02-13T15:33:36.416Z,38.80
2023-02-13T15:36:18.813Z,38.30
2023-02-13T15:38:59.860Z,42.63
2023-02-13T15:41:35.751Z,46.33
2023-02-13T15:44:19.439Z,40.47
2023-02-13T15:46:54.495Z,41.58
2023-02-13T15:49:28.370Z,44.97
2023-02-13T15:52:06.168Z,42.17
2023-02-13T15:54:50.034Z,36.97
2023-02-13T15:57:24.293Z,40.60
2023-02-13T16:00:01.251Z,43.30
2023-02-13T16:02:42.795Z,43.08
2023-02-13T16:05:19.987Z,42.08
2023-02-13T16:07:58.810Z,37.63
2023-02-13T16:10:33.280Z,46.88
2023-02-13T16:13:07.806Z,41.55
2023-02-13T16:15:44.232Z,40.42
2023-02-13T16:18:20.878Z,41.13
2023-02-13T16:20:55.542Z,41.90
2023-02-13T16:23:30.826Z,36.83
2023-02-13T16:26:08.803Z,41.83
2023-02-13T16:28:41.817Z,42.03
2023-02-13T16:31:18.983Z,35.58
2023-02-13T16:33:51.872Z,41.67
2023-02-13T16:36:29.726Z,41.47
2023-02-13T16:39:12.199Z,37.70
2023-02-13T16:41:44.995Z,38.88
2023-02-13T16:44:28.562Z,35.08
2023-02-13T16:47:05.416Z,41.72
2023-02-13T16:49:38.987Z,35.22
2023-02-13T16:52:17.957Z,37.58
2023-02-13T16:54:55.616Z,33.50
2023-02-13T16:57:31.745Z,30.88
2023-02-13T17:00:09.667Z,37.22
2023-02-13T17:02:43.856Z,32.92
2023-02-13T17:05:22.332Z,38.00
2023-02-13T17:07:58.675Z,34.17
2023-02-13T17:10:33.816Z,30.23
2023-02-13T17:13:14.410Z,31.30
2023-02-13T17:15:48.988Z,37.20
2023-02-13T17:18:23.313Z,39.53
2023-02-13T17:20:56.599Z,33.13
2023-02-13T17:23:40.760Z,31.02
2023-02-13T17:26:13.813Z,34.17
2023-02-13T17:31:24.042Z,33.28
2023-02-13T17:33:58.429Z,31.17
2023-02-13T17:36:31.284Z,33.47
2023-02-13T17:39:04.048Z,34.40
2023-02-13T17:41:38.284Z,33.03
2023-02-13T17:44:13.606Z,31.63
2023-02-13T17:46:46.369Z,33.88
2023-02-13T17:49:20.427Z,33.35
2023-02-13T17:51:53.259Z,29.35
2023-02-13T17:54:27.314Z,31.60
2023-02-13T17:57:00.462Z,31.52
2023-02-13T17:59:33.747Z,32.03
2023-02-13T18:02:13.213Z,37.20
2023-02-13T18:04:48.790Z,31.38
2023-02-13T18:07:22.477Z,34.22
2023-02-13T18:09:55.359Z,32.80
2023-02-13T18:15:00.897Z,28.63
2023-02-13T18:17:33.861Z,30.05
2023-02-13T18:22:42.624Z,34.35
2023-02-13T18:25:15.631Z,34.75
2023-02-13T18:27:48.774Z,34.40
2023-02-13T18:30:22.258Z,26.10
2023-02-13T18:32:56.831Z,29.25
2023-02-13T18:35:32.711Z,28.33
2023-02-13T18:38:05.592Z,28.45
2023-02-13T18:43:12.299Z,27.80
2023-02-13T18:50:52.627Z,32.90
2023-02-13T18:53:25.382Z,29.50
2023-02-13T18:56:02.727Z,30.38
2023-02-13T18:58:38.722Z,28.88
2023-02-13T19:01:14.030Z,25.67
2023-02-13T19:03:47.835Z,28.88
2023-02-13T19:06:24.531Z,28.10
2023-02-13T19:08:58.529Z,26.92
2023-02-13T19:11:34.239Z,24.50
2023-02-13T19:14:07.963Z,26.23
2023-02-13T19:16:41.726Z,23.80
2023-02-13T19:19:14.589Z,26.77
2023-02-13T19:24:21.669Z,29.73
2023-02-13T19:26:55.980Z,30.08
2023-02-13T19:29:29.114Z,34.40
2023-02-13T19:32:02.398Z,29.90
2023-02-13T19:34:35.666Z,31.10
2023-02-13T19:37:10.128Z,30.25
2023-02-13T19:39:43.059Z,29.40
2023-02-13T19:44:49.084Z,32.92
2023-02-13T19:47:22.635Z,31.02
2023-02-13T19:49:57.743Z,29.98
2023-02-13T19:52:31.839Z,29.23
2023-02-13T19:55:06.997Z,32.92
2023-02-13T19:57:42.785Z,28.13
2023-02-13T20:00:18.284Z,30.60
2023-02-13T20:02:55.039Z,30.60
2023-02-13T20:05:28.457Z,28.52
2023-02-13T20:08:02.592Z,24.80
2023-02-13T20:10:35.361Z,27.20
2023-02-13T20:13:08.236Z,25.98
2023-02-13T20:15:41.979Z,27.20
2023-02-13T20:18:17.515Z,23.02
2023-02-13T20:20:50.291Z,24.80
2023-02-13T20:23:24.392Z,23.80
2023-02-13T20:25:57.173Z,24.75
2023-02-13T20:28:30.699Z,24.55
2023-02-13T20:31:10.372Z,26.02
2023-02-13T20:33:43.794Z,22.92
2023-02-13T20:36:18.548Z,28.30
2023-02-13T20:38:55.033Z,25.08
2023-02-13T20:41:30.364Z,29.08
2023-02-13T20:44:06.207Z,27.15
2023-02-13T20:46:48.267Z,28.92
2023-02-13T20:49:22.048Z,26.33
2023-02-13T20:51:55.018Z,25.52
2023-02-13T20:57:02.034Z,24.02
2023-02-13T20:59:34.984Z,24.25
2023-02-13T21:04:40.607Z,23.05
2023-02-13T21:07:13.444Z,25.45
2023-02-13T21:12:20.202Z,23.70
2023-02-13T21:14:53.904Z,23.60
2023-02-13T21:17:26.972Z,25.60
2023-02-13T21:20:00.175Z,23.08
2023-02-13T21:22:33.037Z,24.45
2023-02-13T21:25:07.870Z,26.05
2023-02-13T21:27:40.623Z,22.33
2023-02-13T21:30:13.870Z,22.20
2023-02-13T21:32:46.671Z,22.30
2023-02-13T21:35:19.822Z,22.40
2023-02-13T21:37:52.640Z,23.73
2023-02-13T21:40:26.916Z,23.00
2023-02-13T21:43:00.147Z,22.67
2023-02-13T21:45:32.991Z,23.90
2023-02-13T21:50:38.623Z,22.55
2023-02-13T21:53:11.330Z,26.35
2023-02-13T21:55:45.457Z,23.88
2023-02-13T21:58:18.252Z,21.10
2023-02-13T22:00:51.066Z,23.23
2023-02-13T22:03:23.791Z,24.05
2023-02-13T22:05:57.229Z,23.52
2023-02-13T22:08:30.075Z,22.13
2023-02-13T22:13:38.994Z,25.80
2023-02-13T22:16:14.122Z,27.48
2023-02-13T22:18:48.878Z,26.10
2023-02-13T22:21:23.469Z,24.00
2023-02-13T22:23:56.518Z,23.13
2023-02-13T22:26:32.342Z,26.85
2023-02-13T22:29:07.750Z,26.52
2023-02-13T22:31:41.743Z,24.98
2023-02-13T22:34:15.429Z,21.20
2023-02-13T22:36:48.375Z,23.83
2023-02-13T22:41:57.747Z,25.10
2023-02-13T22:44:30.499Z,24.17
2023-02-13T22:47:03.527Z,25.05
2023-02-13T22:52:10.699Z,25.20
2023-02-13T22:54:43.550Z,27.67
2023-02-13T22:59:50.329Z,27.73
2023-02-13T23:02:23.212Z,23.02
2023-02-13T23:04:55.952Z,28.50
2023-02-13T23:07:28.751Z,24.35
2023-02-13T23:10:01.547Z,29.23
2023-02-13T23:12:38.834Z,24.25
2023-02-13T23:15:14.366Z,25.38
2023-02-13T23:18:04.710Z,26.17
2023-02-13T23:20:37.438Z,23.90
2023-02-13T23:23:13.029Z,22.60
2023-02-13T23:25:45.756Z,24.05
2023-02-13T23:28:19.852Z,25.50
2023-02-13T23:30:52.952Z,23.17
2023-02-13T23:33:25.756Z,21.98
2023-02-13T23:35:58.798Z,21.48
2023-02-13T23:38:31.935Z,23.80
2023-02-13T23:43:42.167Z,21.77
2023-02-13T23:46:15.282Z,21.02
2023-02-13T23:48:48.126Z,21.50
2023-02-13T23:51:21.336Z,23.15
2023-02-13T23:53:56.151Z,19.55
2023-02-13T23:56:29.580Z,22.85
2023-02-13T23:59:03.875Z,24.02
